Time;durP1;ratioP1;P1;durP2;ratioP2;P2;SDS_P1;SDS_P2;PMS_P1;PMS_P2;Temp;Humidity;BMP_temperature;BMP_pressure;BME280_temperature;BME280_humidity;BME280_pressure;Samples;Min_cycle;Max_cycle;Signal;HPM_P1;HPM_P2
2022/04/23 00:01:42;;;;;;;12.47;8.20;;;12.00;99.90;;;;;;4984528;28;20498;-74
2022/04/23 00:04:08;;;;;;;11.25;7.53;;;12.00;99.90;;;;;;4986192;28;20418;-75
2022/04/23 00:06:34;;;;;;;10.43;8.00;;;12.00;99.90;;;;;;4984859;28;20419;-75
2022/04/23 00:09:00;;;;;;;10.03;7.70;;;12.10;99.90;;;;;;4984315;28;20421;-75
2022/04/23 00:11:26;;;;;;;12.10;7.80;;;12.00;99.90;;;;;;4984979;28;20451;-75
2022/04/23 00:13:52;;;;;;;11.70;7.57;;;12.10;99.90;;;;;;4984221;28;20466;-74
2022/04/23 00:16:17;;;;;;;11.82;7.93;;;12.10;99.90;;;;;;4985743;28;20411;-75
2022/04/23 00:18:44;;;;;;;12.67;7.97;;;12.10;99.90;;;;;;4984280;28;20411;-75
2022/04/23 00:21:10;;;;;;;9.93;7.90;;;12.10;99.90;;;;;;4984100;28;20419;-75
2022/04/23 00:23:36;;;;;;;12.93;8.73;;;12.20;99.90;;;;;;4985199;28;21005;-75
2022/04/23 00:26:02;;;;;;;11.07;7.95;;;12.20;99.90;;;;;;4984520;28;20453;-75
2022/04/23 00:28:27;;;;;;;11.18;8.40;;;12.30;99.90;;;;;;4985402;28;20856;-75
2022/04/23 00:30:53;;;;;;;11.17;8.37;;;12.30;99.90;;;;;;4985190;28;20425;-75
2022/04/23 00:33:20;;;;;;;11.60;8.50;;;12.30;99.90;;;;;;4984708;28;20454;-75
2022/04/23 00:35:48;;;;;;;11.60;8.30;;;12.20;99.90;;;;;;4986042;28;20434;-74
2022/04/23 00:38:16;;;;;;;13.20;8.90;;;12.20;99.90;;;;;;4968730;28;20429;-75
2022/04/23 00:40:43;;;;;;;12.05;8.90;;;12.10;99.90;;;;;;5060594;28;20414;-75
2022/04/23 00:43:24;;;;;;;12.70;8.60;;;12.10;99.90;;;;;;5087385;28;20770;-75
2022/04/23 00:45:49;;;;;;;12.80;9.35;;;12.10;99.90;;;;;;5086866;28;20461;-74
2022/04/23 00:48:15;;;;;;;12.77;8.93;;;12.00;99.90;;;;;;5088065;28;20426;-74
2022/04/23 00:50:42;;;;;;;12.52;8.90;;;11.90;99.90;;;;;;5086715;28;20417;-74
2022/04/23 00:53:09;;;;;;;14.38;9.02;;;11.90;99.90;;;;;;5087169;28;20966;-74
2022/04/23 00:55:36;;;;;;;11.20;8.82;;;11.90;99.90;;;;;;5086962;28;20425;-75
2022/04/23 00:58:03;;;;;;;10.38;8.90;;;11.80;99.90;;;;;;5087832;28;20664;-75
2022/04/23 01:00:29;;;;;;;11.55;8.73;;;11.80;99.90;;;;;;5086622;28;20406;-74
2022/04/23 01:02:55;;;;;;;11.73;8.70;;;11.80;99.90;;;;;;5088161;28;20398;-75
2022/04/23 01:05:23;;;;;;;11.40;8.93;;;11.80;99.90;;;;;;5086894;28;20414;-74
2022/04/23 01:07:51;;;;;;;13.68;9.10;;;11.80;99.90;;;;;;5088047;28;20405;-75
2022/04/23 01:10:17;;;;;;;13.00;9.07;;;11.80;99.90;;;;;;5086626;28;20975;-75
2022/04/23 01:12:45;;;;;;;13.35;9.48;;;11.80;99.90;;;;;;5085966;28;20482;-75
2022/04/23 01:15:13;;;;;;;13.20;9.40;;;11.80;99.90;;;;;;5042928;28;20461;-75
2022/04/23 01:17:40;;;;;;;11.40;8.80;;;11.80;99.90;;;;;;5086633;28;20417;-76
2022/04/23 01:20:10;;;;;;;15.25;9.45;;;11.80;99.90;;;;;;5086264;28;20409;-76
2022/04/23 01:22:37;;;;;;;14.02;9.85;;;11.70;99.90;;;;;;5041037;28;20460;-76
2022/04/23 01:25:07;;;;;;;14.60;10.10;;;11.60;99.90;;;;;;4985055;28;20410;-76
2022/04/23 01:27:34;;;;;;;14.13;10.00;;;11.50;99.90;;;;;;4992996;28;20421;-76
2022/04/23 01:30:00;;;;;;;14.25;10.23;;;11.50;99.90;;;;;;4987911;28;20818;-76
2022/04/23 01:32:26;;;;;;;13.40;9.65;;;11.40;99.90;;;;;;5060943;28;20573;-76
2022/04/23 01:34:52;;;;;;;13.02;9.40;;;11.40;99.90;;;;;;5089447;28;20508;-75
2022/04/23 01:37:18;;;;;;;15.03;10.27;;;11.30;99.90;;;;;;5091593;28;20906;-75
2022/04/23 01:39:44;;;;;;;13.50;10.35;;;11.20;99.90;;;;;;5078023;28;20408;-75
2022/04/23 01:42:10;;;;;;;14.85;10.50;;;11.20;99.90;;;;;;5007154;28;20520;-76
2022/04/23 01:44:36;;;;;;;14.57;9.80;;;11.10;99.90;;;;;;5007428;28;20416;-76
2022/04/23 01:47:02;;;;;;;12.70;9.82;;;11.10;99.90;;;;;;5008640;28;20401;-75
2022/04/23 01:49:28;;;;;;;12.70;9.77;;;11.10;99.90;;;;;;5039127;28;20418;-75
2022/04/23 01:51:53;;;;;;;14.30;9.87;;;11.00;99.90;;;;;;5053856;28;20519;-75
2022/04/23 01:54:19;;;;;;;14.02;9.80;;;11.00;99.90;;;;;;5030950;28;20801;-76
2022/04/23 01:56:45;;;;;;;14.00;9.77;;;10.90;99.90;;;;;;5090213;28;20410;-75
2022/04/23 01:59:10;;;;;;;13.68;9.60;;;10.90;99.90;;;;;;5045706;28;20409;-76
2022/04/23 02:01:37;;;;;;;12.57;9.33;;;10.90;99.90;;;;;;5031771;28;20422;-76
2022/04/23 02:04:06;;;;;;;15.73;10.65;;;10.90;99.90;;;;;;5058540;28;20820;-75
2022/04/23 02:06:33;;;;;;;13.88;10.43;;;10.80;99.90;;;;;;5003986;28;20919;-76
2022/04/23 02:09:00;;;;;;;12.55;9.73;;;10.80;99.90;;;;;;4996123;28;20414;-76
2022/04/23 02:11:25;;;;;;;12.52;10.05;;;10.80;99.90;;;;;;5089365;28;20398;-76
2022/04/23 02:13:51;;;;;;;13.65;10.13;;;10.80;99.90;;;;;;5091026;28;20514;-75
2022/04/23 02:16:16;;;;;;;14.63;10.17;;;10.70;99.90;;;;;;5091170;28;20448;-75
2022/04/23 02:18:42;;;;;;;13.70;9.80;;;10.70;99.90;;;;;;5031847;28;20460;-76
2022/04/23 02:21:08;;;;;;;15.30;10.33;;;10.70;99.90;;;;;;4986782;28;20517;-75
2022/04/23 02:23:33;;;;;;;12.33;9.43;;;10.70;99.90;;;;;;4987249;28;20791;-75
2022/04/23 02:25:59;;;;;;;14.52;9.95;;;10.70;99.90;;;;;;4993116;28;20423;-75
2022/04/23 02:28:24;;;;;;;12.93;9.73;;;10.70;99.90;;;;;;5062484;28;20412;-74
2022/04/23 02:30:50;;;;;;;11.75;9.25;;;10.60;99.90;;;;;;5024555;28;20407;-74
2022/04/23 02:33:15;;;;;;;14.30;10.00;;;10.60;99.90;;;;;;5010201;28;20997;-75
2022/04/23 02:35:41;;;;;;;13.23;10.10;;;10.60;99.90;;;;;;5089661;28;20402;-74
2022/04/23 02:38:07;;;;;;;15.20;10.13;;;10.60;99.90;;;;;;5089500;28;20444;-75
2022/04/23 02:40:34;;;;;;;12.23;9.88;;;10.60;99.90;;;;;;5090673;28;20762;-74
2022/04/23 02:43:03;;;;;;;13.18;10.23;;;10.60;99.90;;;;;;5046406;28;20470;-75
2022/04/23 02:45:28;;;;;;;13.20;10.00;;;10.50;99.90;;;;;;5005832;28;20467;-75
2022/04/23 02:47:57;;;;;;;13.43;10.38;;;10.50;99.90;;;;;;5006078;28;20417;-74
2022/04/23 02:50:26;;;;;;;14.48;10.63;;;10.50;99.90;;;;;;5006275;28;20885;-75
2022/04/23 02:52:51;;;;;;;13.93;9.77;;;10.50;99.90;;;;;;5007227;28;20444;-74
2022/04/23 02:55:17;;;;;;;11.55;9.73;;;10.50;99.90;;;;;;5007217;28;20409;-74
2022/04/23 02:57:43;;;;;;;12.47;9.70;;;10.50;99.90;;;;;;5006332;28;20432;-75
2022/04/23 03:00:10;;;;;;;14.02;10.25;;;10.50;99.90;;;;;;5054236;28;20528;-74
2022/04/23 03:02:39;;;;;;;13.77;10.15;;;10.50;99.90;;;;;;5089248;28;20410;-75
2022/04/23 03:05:14;;;;;;;13.83;10.60;;;10.50;99.90;;;;;;5075687;28;20902;-74
2022/04/23 03:07:40;;;;;;;12.57;10.23;;;10.50;99.90;;;;;;5037788;28;20406;-74
2022/04/23 03:10:07;;;;;;;12.68;9.50;;;10.50;99.90;;;;;;5007206;28;20463;-74
2022/04/23 03:12:36;;;;;;;11.88;9.95;;;10.50;99.90;;;;;;5088836;28;20476;-75
2022/04/23 03:15:03;;;;;;;11.38;9.93;;;10.50;99.90;;;;;;5040707;28;20422;-74
2022/04/23 03:17:29;;;;;;;12.82;10.82;;;10.50;99.90;;;;;;4986257;28;20410;-74
2022/04/23 03:19:55;;;;;;;13.67;10.00;;;10.40;99.90;;;;;;4985889;28;20425;-75
2022/04/23 03:22:20;;;;;;;11.77;10.15;;;10.40;99.90;;;;;;4986039;28;20768;-74
2022/04/23 03:24:46;;;;;;;12.83;9.90;;;10.40;99.90;;;;;;5084945;28;20405;-74
2022/04/23 03:27:12;;;;;;;11.88;10.60;;;10.40;99.90;;;;;;5088727;28;20551;-74
2022/04/23 03:29:39;;;;;;;12.57;10.55;;;10.40;99.90;;;;;;5089545;28;20413;-75
2022/04/23 03:32:05;;;;;;;13.05;10.45;;;10.40;99.90;;;;;;5088313;28;20416;-74
2022/04/23 03:34:31;;;;;;;11.95;10.60;;;10.30;99.90;;;;;;5089720;28;20406;-74
2022/04/23 03:36:57;;;;;;;12.10;10.13;;;10.30;99.90;;;;;;5088611;28;20511;-74
2022/04/23 03:39:23;;;;;;;11.50;10.30;;;10.20;99.90;;;;;;5088219;28;20932;-74
2022/04/23 03:41:48;;;;;;;13.63;10.45;;;10.20;99.90;;;;;;4991598;28;20998;-74
2022/04/23 03:44:14;;;;;;;12.43;10.93;;;10.20;99.90;;;;;;4985770;28;20418;-75
2022/04/23 03:46:40;;;;;;;14.20;11.00;;;10.20;99.90;;;;;;4985801;28;20441;-75
2022/04/23 03:49:07;;;;;;;13.27;10.97;;;10.10;99.90;;;;;;4986025;28;20509;-74
2022/04/23 03:51:34;;;;;;;12.38;10.88;;;10.10;99.90;;;;;;5002168;28;20514;-74
2022/04/23 03:54:00;;;;;;;12.45;10.68;;;10.10;99.90;;;;;;4985714;28;20443;-74
2022/04/23 03:56:26;;;;;;;12.32;10.73;;;10.10;99.90;;;;;;4985103;28;20946;-74
2022/04/23 03:58:52;;;;;;;14.00;11.48;;;10.00;99.90;;;;;;4985694;28;20502;-75
2022/04/23 04:01:18;;;;;;;12.00;10.75;;;10.00;99.90;;;;;;4985706;28;20806;-75
2022/04/23 04:03:44;;;;;;;12.90;11.37;;;10.00;99.90;;;;;;4985377;28;20475;-74
2022/04/23 04:06:10;;;;;;;11.75;10.52;;;9.90;99.90;;;;;;4985064;28;20476;-75
2022/04/23 04:08:36;;;;;;;13.73;10.98;;;9.90;99.90;;;;;;4985011;28;20418;-74
2022/04/23 04:11:01;;;;;;;14.07;11.30;;;9.90;99.90;;;;;;4984283;28;20421;-74
2022/04/23 04:13:27;;;;;;;13.07;11.00;;;9.90;99.90;;;;;;4998209;28;20433;-74
2022/04/23 04:15:53;;;;;;;12.23;10.80;;;9.90;99.90;;;;;;5015044;28;20499;-75
2022/04/23 04:18:19;;;;;;;12.52;10.60;;;9.80;99.90;;;;;;5079021;28;20429;-75
2022/04/23 04:20:48;;;;;;;13.33;10.77;;;9.80;99.90;;;;;;5087514;28;20406;-75
2022/04/23 04:23:15;;;;;;;12.43;10.32;;;9.80;99.90;;;;;;5054416;28;20460;-75
2022/04/23 04:25:41;;;;;;;12.15;10.95;;;9.80;99.90;;;;;;4985798;28;20457;-75
2022/04/23 04:28:07;;;;;;;12.88;11.10;;;9.80;99.90;;;;;;4984740;28;20510;-74
2022/04/23 04:31:47;;;;;;;11.23;10.00;;;9.70;99.90;;;;;;4984863;28;20422;-74
2022/04/23 04:33:19;;;;;;;12.05;10.63;;;9.70;99.90;;;;;;5082341;28;20444;-75
2022/04/23 04:35:44;;;;;;;12.13;10.73;;;9.70;99.90;;;;;;5086984;28;20421;-74
2022/04/23 04:38:10;;;;;;;11.80;10.40;;;9.70;99.90;;;;;;5086934;28;20413;-74
2022/04/23 04:40:35;;;;;;;11.88;10.65;;;9.70;99.90;;;;;;5088407;28;20431;-75
2022/04/23 04:43:01;;;;;;;13.00;10.50;;;9.70;99.90;;;;;;5087163;28;20451;-75
2022/04/23 04:45:27;;;;;;;12.20;10.30;;;9.70;99.90;;;;;;5087077;28;20406;-74
2022/04/23 04:47:52;;;;;;;11.60;10.23;;;9.70;99.90;;;;;;5087068;28;20413;-74
2022/04/23 04:50:18;;;;;;;11.73;10.30;;;9.70;99.90;;;;;;4992374;28;20415;-74
2022/04/23 04:52:44;;;;;;;11.38;10.15;;;9.70;99.90;;;;;;4985037;28;20438;-75
2022/04/23 04:55:10;;;;;;;11.88;10.30;;;9.70;99.90;;;;;;4984938;28;20425;-74
2022/04/23 04:57:36;;;;;;;11.40;9.80;;;9.70;99.90;;;;;;4984540;28;20784;-74
2022/04/23 05:00:05;;;;;;;11.70;9.85;;;9.70;99.90;;;;;;4984595;28;20411;-74
2022/04/23 05:02:31;;;;;;;11.05;9.82;;;9.70;99.90;;;;;;4985938;28;20410;-75
2022/04/23 05:04:56;;;;;;;11.27;9.90;;;9.80;99.90;;;;;;4984767;28;20423;-75
2022/04/23 05:07:22;;;;;;;11.25;10.05;;;9.80;99.90;;;;;;4984454;28;20407;-75
2022/04/23 05:09:47;;;;;;;11.57;9.67;;;9.80;99.90;;;;;;4984801;28;20414;-75
2022/04/23 05:12:13;;;;;;;11.10;9.88;;;9.80;99.90;;;;;;4983814;28;20414;-74
2022/04/23 05:14:38;;;;;;;10.97;9.67;;;9.80;99.90;;;;;;4985656;28;21131;-74
2022/04/23 05:17:04;;;;;;;11.45;9.95;;;9.80;99.90;;;;;;4985846;28;20850;-74
2022/04/23 05:19:30;;;;;;;10.37;9.37;;;9.90;99.90;;;;;;4984732;28;20422;-75
2022/04/23 05:21:55;;;;;;;10.55;9.55;;;9.90;99.90;;;;;;4984279;28;20427;-75
2022/04/23 05:24:21;;;;;;;10.67;9.50;;;9.90;99.90;;;;;;5076687;28;20405;-74
2022/04/23 05:26:46;;;;;;;11.23;9.60;;;9.90;99.90;;;;;;5087778;28;20441;-74
2022/04/23 05:29:12;;;;;;;10.50;9.40;;;9.90;99.90;;;;;;5086530;28;20438;-75
2022/04/23 05:31:38;;;;;;;11.00;9.90;;;10.00;99.90;;;;;;5086475;28;20402;-75
2022/04/23 05:34:04;;;;;;;11.27;10.00;;;10.00;99.90;;;;;;5086076;28;20529;-74
2022/04/23 05:36:30;;;;;;;11.93;9.80;;;10.00;99.90;;;;;;5086341;28;20485;-74
2022/04/23 05:38:56;;;;;;;11.90;9.90;;;10.10;99.90;;;;;;5086471;28;20477;-74
2022/04/23 05:41:22;;;;;;;10.82;9.60;;;10.10;99.90;;;;;;5086649;28;20402;-74
2022/04/23 05:43:47;;;;;;;10.95;9.85;;;10.10;99.90;;;;;;5086756;28;21190;-74
2022/04/23 05:46:15;;;;;;;11.65;9.98;;;10.10;99.90;;;;;;5086209;28;20450;-75
2022/04/23 05:48:41;;;;;;;11.40;9.85;;;10.10;99.90;;;;;;5103339;28;20467;-75
2022/04/23 05:51:06;;;;;;;11.02;9.80;;;10.20;99.90;;;;;;5086771;28;20406;-75
2022/04/23 05:53:32;;;;;;;11.63;10.10;;;10.20;99.90;;;;;;5086099;28;20968;-75
2022/04/23 05:55:58;;;;;;;11.75;10.55;;;10.20;99.90;;;;;;5086265;28;20428;-75
2022/04/23 05:58:23;;;;;;;11.33;10.13;;;10.30;99.90;;;;;;5087212;28;20800;-75
2022/04/23 06:00:52;;;;;;;10.43;9.35;;;10.20;99.90;;;;;;5087526;28;20950;-75
2022/04/23 06:03:18;;;;;;;11.25;10.05;;;10.30;99.90;;;;;;5087412;28;20398;-75
2022/04/23 06:05:44;;;;;;;10.75;9.65;;;10.30;99.90;;;;;;5086283;28;20402;-75
2022/04/23 06:08:09;;;;;;;10.90;9.80;;;10.40;99.90;;;;;;5085793;28;20456;-75
2022/04/23 06:10:35;;;;;;;11.98;10.20;;;10.50;99.90;;;;;;5086339;28;20398;-75
2022/04/23 06:13:01;;;;;;;12.27;10.53;;;10.50;99.90;;;;;;5085965;28;20473;-74
2022/04/23 06:15:27;;;;;;;11.75;10.20;;;10.50;99.90;;;;;;5086013;28;20417;-74
2022/04/23 06:17:52;;;;;;;11.52;10.35;;;10.60;99.90;;;;;;5087359;28;20398;-75
2022/04/23 06:20:18;;;;;;;12.10;10.80;;;10.70;99.90;;;;;;5087816;28;20409;-75
2022/04/23 06:22:44;;;;;;;13.02;10.60;;;10.80;99.90;;;;;;5071284;28;20488;-75
2022/04/23 06:25:09;;;;;;;13.37;10.37;;;10.80;99.90;;;;;;5009671;28;20422;-75
2022/04/23 06:27:37;;;;;;;12.18;10.35;;;10.90;99.90;;;;;;5001520;28;20828;-75
2022/04/23 06:30:09;;;;;;;12.43;10.32;;;10.90;99.90;;;;;;4997522;28;20451;-75
2022/04/23 06:32:35;;;;;;;11.55;10.38;;;10.90;99.90;;;;;;4988115;28;20423;-77
2022/04/23 06:35:01;;;;;;;12.30;10.43;;;11.00;99.90;;;;;;5003000;28;20453;-76
2022/04/23 06:37:26;;;;;;;11.45;10.25;;;11.10;99.90;;;;;;5083970;28;20416;-76
2022/04/23 06:39:52;;;;;;;11.60;10.37;;;11.10;99.90;;;;;;4985766;28;20418;-76
2022/04/23 06:42:18;;;;;;;11.38;10.15;;;11.20;99.90;;;;;;4985768;28;20898;-76
2022/04/23 06:44:43;;;;;;;10.77;9.67;;;11.20;99.90;;;;;;4987542;28;20459;-76
2022/04/23 06:47:09;;;;;;;12.52;10.20;;;11.20;99.90;;;;;;4990050;28;20418;-76
2022/04/23 06:49:34;;;;;;;12.47;10.17;;;11.30;99.90;;;;;;4978051;28;20954;-76
2022/04/23 06:52:00;;;;;;;12.02;10.30;;;11.30;99.90;;;;;;4994178;28;20421;-76
2022/04/23 06:54:25;;;;;;;12.10;10.23;;;11.40;99.90;;;;;;4985247;28;20415;-76
2022/04/23 06:56:52;;;;;;;11.20;10.00;;;11.40;99.90;;;;;;4998771;28;21256;-76
2022/04/23 06:59:18;;;;;;;10.93;9.70;;;11.40;99.90;;;;;;4986354;28;20430;-76
2022/04/23 07:01:43;;;;;;;11.10;9.90;;;11.50;99.90;;;;;;4986468;28;20415;-76
2022/04/23 07:04:10;;;;;;;12.53;9.97;;;11.60;99.90;;;;;;5076138;28;20909;-76
2022/04/23 07:06:35;;;;;;;11.15;9.95;;;11.50;99.90;;;;;;5087389;28;20576;-76
2022/04/23 07:09:03;;;;;;;11.18;10.07;;;11.60;99.90;;;;;;4997700;28;20878;-76
2022/04/23 07:11:29;;;;;;;10.77;9.67;;;11.70;99.90;;;;;;4982279;28;20414;-76
2022/04/23 07:13:55;;;;;;;11.80;10.13;;;11.70;99.90;;;;;;4984906;28;21228;-76
2022/04/23 07:16:21;;;;;;;11.80;10.60;;;11.70;99.90;;;;;;4985727;28;20407;-76
2022/04/23 07:18:46;;;;;;;11.50;10.30;;;11.80;99.90;;;;;;4986016;28;20797;-76
2022/04/23 07:21:12;;;;;;;11.80;10.40;;;11.80;99.90;;;;;;4986055;28;20422;-77
2022/04/23 07:26:22;;;;;;;10.55;9.55;;;11.90;99.90;;;;;;5005578;28;20500;-75
2022/04/23 07:28:48;;;;;;;11.30;10.10;;;12.00;99.90;;;;;;4999047;28;20444;-76
2022/04/23 07:31:14;;;;;;;10.63;9.53;;;11.90;99.90;;;;;;4994106;28;20417;-76
2022/04/23 07:39:08;;;;;;;11.73;10.07;;;12.20;99.90;;;;;;5005389;28;20821;-75
2022/04/23 07:41:33;;;;;;;10.77;9.68;;;12.20;99.90;;;;;;5005178;28;20451;-75
2022/04/23 07:43:59;;;;;;;11.10;10.00;;;12.30;99.90;;;;;;5005672;28;20449;-75
2022/04/23 07:46:25;;;;;;;11.37;10.10;;;12.30;99.90;;;;;;5005267;28;20447;-75
2022/04/23 07:48:50;;;;;;;12.77;10.02;;;12.30;99.90;;;;;;5004534;28;20441;-75
2022/04/23 07:51:17;;;;;;;11.52;10.02;;;12.40;99.90;;;;;;5004207;28;20409;-75
2022/04/23 07:53:42;;;;;;;11.40;10.23;;;12.50;99.90;;;;;;5004246;28;20440;-75
2022/04/23 07:56:08;;;;;;;11.00;9.90;;;12.50;99.90;;;;;;5005239;28;20409;-75
2022/04/23 07:58:34;;;;;;;11.80;9.87;;;12.60;99.90;;;;;;5004588;28;20501;-75
2022/04/23 08:00:59;;;;;;;11.30;10.10;;;12.70;99.90;;;;;;5004375;28;20741;-75
2022/04/23 08:03:25;;;;;;;11.87;10.60;;;12.80;99.90;;;;;;5003922;28;20964;-76
2022/04/23 08:05:51;;;;;;;11.27;10.15;;;12.80;99.90;;;;;;5005683;28;20424;-75
2022/04/23 08:08:21;;;;;;;11.63;10.53;;;12.90;99.90;;;;;;5005040;28;20409;-76
2022/04/23 08:10:47;;;;;;;11.45;9.90;;;13.00;99.90;;;;;;5005284;28;20404;-75
2022/04/23 08:13:13;;;;;;;10.53;9.50;;;13.10;99.90;;;;;;5003983;28;20466;-75
2022/04/23 08:15:39;;;;;;;11.30;10.20;;;13.20;99.90;;;;;;5003986;28;20413;-75
2022/04/23 08:18:05;;;;;;;10.70;9.57;;;13.20;99.40;;;;;;5004610;28;20401;-75
2022/04/23 08:20:31;;;;;;;10.45;9.38;;;13.20;99.60;;;;;;5003668;28;20413;-75
2022/04/23 08:22:57;;;;;;;10.93;9.83;;;13.30;99.90;;;;;;5005669;28;20401;-75
2022/04/23 08:25:22;;;;;;;11.15;10.05;;;13.40;99.30;;;;;;5003680;28;20483;-75
2022/04/23 08:30:41;;;;;;;11.30;10.20;;;13.50;98.20;;;;;;5004007;28;20425;-76
2022/04/23 08:33:07;;;;;;;11.23;9.77;;;13.60;99.20;;;;;;5004881;28;20489;-75
2022/04/23 08:35:36;;;;;;;10.95;9.80;;;13.70;98.30;;;;;;5044398;28;20398;-75
2022/04/23 08:38:04;;;;;;;10.70;9.35;;;13.70;97.00;;;;;;5087655;28;20414;-75
2022/04/23 08:40:41;;;;;;;11.05;9.85;;;13.80;96.20;;;;;;5087300;28;20405;-75
2022/04/23 08:43:07;;;;;;;10.80;9.60;;;13.80;96.30;;;;;;5086603;28;20412;-75
2022/04/23 08:45:37;;;;;;;11.40;10.00;;;13.90;97.10;;;;;;5088612;28;20791;-76
2022/04/23 08:48:08;;;;;;;11.68;10.48;;;14.00;96.50;;;;;;5086825;28;20423;-75
2022/04/23 08:50:38;;;;;;;10.50;9.50;;;14.00;94.20;;;;;;5086918;28;20414;-76
2022/04/23 08:53:12;;;;;;;10.87;9.77;;;14.00;94.60;;;;;;5086987;28;20426;-76
2022/04/23 08:55:40;;;;;;;11.02;9.82;;;14.00;94.10;;;;;;5087984;28;20402;-75
2022/04/23 08:58:05;;;;;;;10.55;9.10;;;14.00;93.20;;;;;;5086610;28;20890;-75
2022/04/23 09:00:31;;;;;;;11.85;9.70;;;14.00;92.80;;;;;;5085932;28;20469;-75
2022/04/23 09:02:56;;;;;;;11.70;9.57;;;14.10;93.70;;;;;;5085849;28;20774;-75
2022/04/23 09:05:25;;;;;;;10.63;9.53;;;14.20;93.50;;;;;;5085914;28;20437;-75
2022/04/23 09:07:53;;;;;;;11.85;10.13;;;14.30;93.20;;;;;;5079352;28;20452;-75
2022/04/23 09:10:20;;;;;;;10.60;9.55;;;14.40;92.80;;;;;;4995177;28;20790;-76
2022/04/23 09:12:58;;;;;;;10.95;9.60;;;14.40;93.10;;;;;;5086924;28;20461;-76
2022/04/23 09:23:44;;;;;;;11.70;9.65;;;14.90;92.20;;;;;;5015859;28;20930;-74
2022/04/23 09:26:17;;;;;;;10.07;9.07;;;15.50;91.30;;;;;;5087000;28;20409;-74
2022/04/23 09:28:47;;;;;;;9.73;8.73;;;15.90;90.90;;;;;;5085321;28;20438;-74
2022/04/23 09:31:13;;;;;;;9.75;8.75;;;16.30;86.70;;;;;;5085482;28;20406;-74
2022/04/23 09:33:51;;;;;;;9.37;8.37;;;16.70;85.90;;;;;;5085488;28;20445;-74
2022/04/23 09:36:18;;;;;;;9.50;8.60;;;17.00;86.30;;;;;;5085584;28;21102;-74
2022/04/23 09:38:43;;;;;;;8.50;7.63;;;17.50;83.20;;;;;;5085510;28;20934;-74
2022/04/23 09:41:20;;;;;;;8.60;7.70;;;17.70;81.50;;;;;;5040193;28;20445;-74
2022/04/23 09:43:50;;;;;;;10.57;7.63;;;17.90;79.10;;;;;;4984548;28;20456;-74
2022/04/23 09:46:16;;;;;;;8.83;7.23;;;18.10;78.80;;;;;;4983900;28;20918;-74
2022/04/23 09:48:43;;;;;;;7.57;6.88;;;18.30;73.50;;;;;;4984265;28;20437;-74
2022/04/23 09:51:24;;;;;;;7.93;6.68;;;18.50;72.90;;;;;;4984946;28;20407;-74
2022/04/23 09:53:51;;;;;;;9.70;7.25;;;18.70;71.10;;;;;;4967932;28;20443;-74
2022/04/23 09:56:18;;;;;;;7.57;6.28;;;18.70;67.40;;;;;;4986697;28;20422;-74
2022/04/23 09:58:43;;;;;;;7.75;6.60;;;18.70;65.30;;;;;;4988766;28;20498;-74
2022/04/23 10:01:09;;;;;;;6.85;6.15;;;18.70;65.70;;;;;;4988252;28;20493;-74
2022/04/23 10:03:35;;;;;;;6.93;6.23;;;18.70;65.30;;;;;;4987234;28;20411;-74
2022/04/23 10:06:02;;;;;;;7.57;6.10;;;18.90;64.10;;;;;;4971114;28;20414;-74
2022/04/23 10:08:30;;;;;;;7.47;6.50;;;18.80;62.50;;;;;;4988397;28;20395;-74
2022/04/23 10:11:09;;;;;;;7.78;6.35;;;18.80;64.00;;;;;;4987172;28;20425;-74
2022/04/23 10:13:39;;;;;;;7.97;6.70;;;19.10;65.00;;;;;;4987168;28;20442;-74
2022/04/23 10:16:07;;;;;;;7.50;6.37;;;19.20;60.80;;;;;;5051369;28;20408;-74
2022/04/23 10:18:38;;;;;;;7.63;5.90;;;19.10;62.50;;;;;;5089748;28;20430;-74
2022/04/23 10:21:08;;;;;;;8.05;5.88;;;19.30;59.00;;;;;;5089753;28;20951;-74
2022/04/23 10:23:40;;;;;;;7.57;5.75;;;19.40;58.80;;;;;;5089150;28;20455;-74
2022/04/23 10:26:35;;;;;;;6.20;5.60;;;19.70;59.40;;;;;;5089613;28;20508;-74
2022/04/23 10:29:06;;;;;;;7.32;5.63;;;19.90;57.80;;;;;;5090857;28;20406;-75
2022/04/23 10:31:31;;;;;;;6.10;5.38;;;20.10;58.70;;;;;;5091091;28;20479;-75
2022/04/23 10:33:57;;;;;;;5.87;5.17;;;20.30;59.70;;;;;;5085392;28;20492;-75
2022/04/23 10:36:23;;;;;;;5.53;4.87;;;20.50;57.40;;;;;;5088976;28;20405;-75
2022/04/23 10:38:53;;;;;;;11.32;4.85;;;20.70;55.50;;;;;;5072493;28;20810;-74
2022/04/23 10:41:22;;;;;;;6.65;5.15;;;20.70;56.30;;;;;;5089702;28;20539;-74
2022/04/23 10:43:49;;;;;;;5.97;4.70;;;20.70;54.40;;;;;;5090765;28;20481;-74
2022/04/23 10:46:36;;;;;;;7.20;5.00;;;20.60;53.20;;;;;;5089215;28;20402;-74
2022/04/23 10:49:22;;;;;;;6.10;5.20;;;20.60;53.50;;;;;;5090349;28;20421;-75
2022/04/23 10:51:53;;;;;;;7.15;4.70;;;20.50;52.30;;;;;;5090365;28;20505;-74
2022/04/23 10:54:21;;;;;;;5.20;4.70;;;20.50;52.40;;;;;;5090201;28;20418;-74
2022/04/23 10:56:51;;;;;;;5.22;4.70;;;20.40;52.70;;;;;;5089343;28;20410;-74
2022/04/23 10:59:42;;;;;;;5.97;4.63;;;20.40;52.80;;;;;;5089049;28;20409;-75
2022/04/23 11:02:14;;;;;;;5.45;4.10;;;20.40;52.00;;;;;;5080749;28;20410;-74
2022/04/23 11:13:38;;;;;;;5.47;4.10;;;20.90;52.30;;;;;;4987272;28;20884;-74
2022/04/23 11:16:16;;;;;;;4.80;4.30;;;21.10;50.80;;;;;;4989745;28;20464;-74
2022/04/23 11:18:43;;;;;;;4.88;3.85;;;21.10;49.10;;;;;;5005156;28;20420;-74
2022/04/23 11:21:23;;;;;;;5.65;3.90;;;21.00;49.70;;;;;;5000788;28;20999;-74
2022/04/23 11:23:49;;;;;;;4.53;3.67;;;20.80;48.80;;;;;;5005346;28;20429;-74
2022/04/23 11:26:18;;;;;;;4.65;3.65;;;20.80;49.40;;;;;;4986629;28;20485;-74
2022/04/23 11:28:45;;;;;;;5.07;3.40;;;21.00;49.20;;;;;;4966773;28;20899;-74
2022/04/23 11:31:16;;;;;;;4.60;3.47;;;21.20;50.20;;;;;;4997865;28;20455;-74
2022/04/23 11:34:12;;;;;;;5.60;3.70;;;21.40;47.00;;;;;;4995071;28;20438;-75
2022/04/23 11:36:38;;;;;;;7.57;3.72;;;21.50;49.40;;;;;;4987708;28;20458;-74
2022/04/23 11:39:07;;;;;;;4.97;3.53;;;21.60;48.80;;;;;;4987066;28;20441;-74
2022/04/23 11:41:38;;;;;;;7.72;3.30;;;21.60;47.70;;;;;;4988707;28;20433;-75
2022/04/23 11:44:45;;;;;;;3.95;3.45;;;21.70;50.00;;;;;;5082598;28;20410;-75
2022/04/23 11:47:13;;;;;;;6.07;3.70;;;22.10;47.20;;;;;;5007478;28;20442;-75
2022/04/23 11:49:39;;;;;;;4.47;3.50;;;21.90;46.30;;;;;;4995959;28;20982;-74
2022/04/23 11:52:12;;;;;;;5.85;3.70;;;21.80;47.80;;;;;;4990413;28;20429;-75
2022/04/23 11:54:43;;;;;;;4.77;3.77;;;21.80;46.70;;;;;;4985598;28;20422;-74
2022/04/23 11:57:11;;;;;;;5.07;3.67;;;21.80;47.80;;;;;;4992113;28;20937;-75
2022/04/23 11:59:39;;;;;;;5.10;3.70;;;21.70;45.90;;;;;;5005400;28;20864;-74
2022/04/23 12:02:26;;;;;;;3.85;3.30;;;21.80;45.40;;;;;;4994305;28;20433;-74
2022/04/23 12:04:53;;;;;;;4.70;3.72;;;22.00;47.80;;;;;;5000951;28;20417;-75
2022/04/23 12:07:23;;;;;;;5.72;3.70;;;22.20;47.40;;;;;;4989526;28;20448;-74
2022/04/23 12:09:53;;;;;;;4.40;2.97;;;22.40;46.50;;;;;;5004508;28;20424;-75
2022/04/23 12:12:25;;;;;;;4.15;3.05;;;22.40;46.90;;;;;;5002204;28;20436;-75
2022/04/23 12:14:59;;;;;;;4.27;3.10;;;22.50;45.90;;;;;;5002604;28;20460;-74
2022/04/23 12:17:47;;;;;;;4.10;3.00;;;22.50;44.40;;;;;;4985053;28;20946;-74
2022/04/23 12:20:19;;;;;;;4.90;3.10;;;22.60;46.50;;;;;;5004410;28;20914;-74
2022/04/23 12:23:02;;;;;;;5.03;2.95;;;22.60;46.30;;;;;;5000069;28;20948;-74
2022/04/23 12:25:33;;;;;;;3.30;2.80;;;22.60;44.70;;;;;;4964602;28;20428;-75
2022/04/23 12:28:00;;;;;;;3.85;3.00;;;22.60;45.70;;;;;;4983855;28;20420;-75
2022/04/23 12:42:10;;;;;;;5.45;2.80;;;22.80;42.80;;;;;;4994200;28;20482;-75
2022/04/23 12:44:42;;;;;;;3.88;2.20;;;22.70;44.80;;;;;;4981488;28;20439;-75
2022/04/23 12:47:13;;;;;;;5.00;2.30;;;22.90;44.10;;;;;;4989998;28;21116;-74
2022/04/23 12:50:02;;;;;;;5.40;2.25;;;22.90;44.40;;;;;;4999578;28;21486;-74
2022/04/23 12:52:46;;;;;;;6.57;2.25;;;23.10;44.30;;;;;;5004327;28;20455;-75
2022/04/23 12:55:28;;;;;;;4.18;2.20;;;23.50;44.30;;;;;;4977829;28;20439;-75
2022/04/23 12:58:05;;;;;;;5.03;2.13;;;23.60;44.00;;;;;;5001851;28;20437;-75
2022/04/23 13:00:35;;;;;;;3.10;2.13;;;23.60;44.00;;;;;;4964244;28;20425;-75
2022/04/23 13:03:19;;;;;;;4.18;2.03;;;23.40;41.80;;;;;;4965076;28;21419;-75
2022/04/23 13:05:45;;;;;;;4.03;2.17;;;23.60;42.60;;;;;;5000125;28;20412;-75
2022/04/23 13:10:58;;;;;;;4.93;2.10;;;24.10;41.50;;;;;;4965536;28;20412;-75
2022/04/23 13:13:24;;;;;;;4.22;2.05;;;24.30;42.10;;;;;;4967195;28;20562;-75
2022/04/23 13:15:49;;;;;;;3.23;1.70;;;24.50;41.60;;;;;;5002132;28;20443;-75
2022/04/23 13:18:15;;;;;;;3.42;1.60;;;24.70;41.60;;;;;;5000161;28;20429;-75
2022/04/23 13:20:40;;;;;;;3.38;1.70;;;24.90;41.50;;;;;;5000372;28;20452;-75
2022/04/23 13:23:06;;;;;;;3.50;1.90;;;25.10;41.00;;;;;;5002718;28;20432;-75
2022/04/23 13:25:32;;;;;;;2.87;1.43;;;25.10;39.80;;;;;;4999103;28;20472;-75